Nearby METAR Reports

 

CYUL - Montreal/Dorval, Quebec, Canada
Distance from station: ENE 6km
Updated: 12/06/2019 11:21 EST
Light snow, Mist, Overcast
Light snow, Mist, Overcast
 Wind from NNW
Wind: NNW 7 km/h
Temperature: -5°C
Wind Chill: -8°C
Dew Point: -7°C
Humidity: 86%
Barometer: 1015.6 hPa
Summary: Light snow, Mist
Clouds: Overcast
Visibility: 5 km
Cloud details: Mostly cloudy 396 m
Overcast 610 m
2019/12/06 16:21 CYUL 061621Z 34004KT 3SM R24L/5000VP6000FT/D -SN BR BKN013 OVC020 M05/M07 A2999 RMK SF6NS2 SLP159
CWVQ - Ste Anne De Bell, Quebec, Canada
Distance from station: WSW 10km
Updated: 12/06/2019 11:00 EST

 Wind from W
Wind: W 6 km/h
Temperature: -4°C
Dew Point: -6°C
Humidity: 86%
2019/12/06 16:00 CWVQ 061600Z AUTO 26003KT M04/M06 RMK AO1 SOG 03 8005 SLP160 T10431055
 
CWTA - Mc Tavish (aut), Quebec, Canada
Distance from station: ENE 18km
Updated: 12/06/2019 11:00 EST

 Wind from NW
Wind: NW 4 km/h
Temperature: -5°C
Dew Point: -8°C
Humidity: 80%
2019/12/06 16:00 CWTA 061600Z AUTO 31002KT M05/M08 RMK AO1 SOG 12 8003 SLP158 T10471076 50005
CYMX - Montreal/Mirabel, Quebec, Canada
Distance from station: NW 29km
Updated: 12/06/2019 11:00 EST
Light snow, Overcast
Light snow, Overcast
 Wind from WSW
Wind: WSW 7 km/h
Temperature: -5°C
Wind Chill: -8°C
Dew Point: -8°C
Humidity: 80%
Barometer: 1015.2 hPa
Summary: Light Snow
Clouds: Overcast
Visibility: 19 km
Cloud details: Mostly cloudy 1280 m
Overcast 2438 m
2019/12/06 16:00 CYMX 061600Z 24004KT 12SM -SN BKN042 OVC080 M05/M08 A2998 RMK SC5AS3 SLP159
 
CYHU - Saint Hubert Arp, Quebec, Canada
Distance from station: ENE 31km
Updated: 12/06/2019 11:52 EST
Light snow, Overcast
Light snow, Overcast
 Wind from varies
Wind: varies 4 km/h
Temperature: -4°C
Dew Point: -7°C
Humidity: 80%
Barometer: 1015.2 hPa
Summary: Light Snow
Clouds: Overcast
Visibility: 10 km
Cloud details: Mostly cloudy 488 m
Overcast 884 m
2019/12/06 16:52 CYHU 061652Z AUTO VRB02KT 6SM -SN BKN016 OVC029 M04/M07 A2998 RMK SLP155
CWIT - St Clothilde (a, Quebec, Canada
Distance from station: SSE 33km
Updated: 12/06/2019 11:00 EST

 Wind from WNW
Wind: WNW 6 km/h
Temperature: -4°C
Dew Point: -7°C
Humidity: 80%
2019/12/06 16:00 CWIT 061600Z AUTO 29003KT M04/M07 RMK AO1 SOG 08 8005 SLP153 T10421068 50005
 
CWIZ - L'acadie, Quebec, Canada
Distance from station: ESE 41km
Updated: 12/06/2019 11:00 EST

 Wind from WSW
Wind: WSW 7 km/h
Temperature: -4°C
Wind Chill: -7°C
Dew Point: -6°C
Humidity: 86%
2019/12/06 16:00 CWIZ 061600Z AUTO 24004KT M04/M06 RMK AO1 SOG 07 T10351061 50003
CWHM - Varennes, Quebec, Canada
Distance from station: NE 45km
Updated: 10/25/2016 10:00 EDT
NOT Current

 Wind from W
Wind: W 19 km/h, Gust: 28 km/h
Temperature: 4°C
Wind Chill: 0°C
Dew Point: -2°C
Humidity: 65%
2016/10/25 14:00 CWHM 251400Z AUTO 28010G15KT 04/M02 RMK AO1 PK WND 28018/1302 T00391017
 
CWEW - L'assomption, Quebec, Canada
Distance from station: NE 50km
Updated: 12/06/2019 11:00 EST

 Wind from WSW
Wind: WSW 9 km/h
Temperature: -4°C
Wind Chill: -8°C
Dew Point: -8°C
Humidity: 74%
2019/12/06 16:00 CWEW 061600Z AUTO 24005KT M04/M08 RMK AO1 SOG 01 8003 SLP166 T10441075
CWBZ - St Anicet, Quebec, Canada
Distance from station: SW 52km
Updated: 12/06/2019 11:00 EST

 Wind from SW
Wind: SW 4 km/h
Temperature: -4°C
Dew Point: -6°C
Humidity: 86%
2019/12/06 16:00 CWBZ 061600Z AUTO 23002KT M04/M06 RMK AO1 2PAST HR 8004 SLP156 P0001 T10381058 50005
 
KFSO - Highgate, Vermont, USA
Distance from station: SE 79km
Updated: 12/06/2019 11:56 EST
Light snow, Overcast
Light snow, Overcast
 Wind from calm
Wind: Calm
Temperature: -2°C
Dew Point: -4°C
Humidity: 86%
Barometer: 1015.2 hPa
Summary: Light Snow
Clouds: Overcast
Visibility: 2 km
Cloud details: Overcast 305 m
2019/12/06 16:56 KFSO 061656Z AUTO 00000KT 1SM -SN OVC010 M02/M04 A2998 RMK AO2 T10201041
CMGB - Granby, Quebec, Canada
Distance from station: E 81km
Updated: 12/06/2019 11:45 EST

 Wind from SW
Wind: SW 6 km/h
Temperature: -4°C
2019/12/06 16:45 CMGB 061645Z AUTO 23003KT M04/ RMK AO1 SOG 06 8006 SLP157 T1039
 
CWJT - St Jovite (autob, Quebec, Canada
Distance from station: NW 88km
Updated: 12/06/2019 10:00 EST
NOT Current

 Wind from N
Wind: N 37 km/h
Temperature: -8°C
Wind Chill: -17°C
Dew Point: -9°C
Humidity: 93%
2019/12/06 15:00 CWJT 061500Z AUTO 00020KT M08/M09 RMK AO1 SLP168 T10821091 53002
CWFQ - Frelighsburg, Quebec, Canada
Distance from station: ESE 90km
Updated: 12/06/2019 11:00 EST

 Wind from WSW
Wind: WSW 4 km/h
Temperature: -5°C
Dew Point: -7°C
Humidity: 86%
2019/12/06 16:00 CWFQ 061600Z AUTO 24002KT M05/M07 RMK AO1 3PAST HR SOG 07 7006 SLP152 P0001 T10491071 50010
 
KPBG - Plattsburgh Afb, New York, USA
Distance from station: SSE 93km
Updated: 12/06/2019 11:53 EST
Light snow, Overcast
Light snow, Overcast
 Wind from calm
Wind: Calm
Temperature: -2°C
Dew Point: -7°C
Humidity: 69%
Barometer: 1014.9 hPa
Summary: Light Snow
Clouds: Overcast
Visibility: 8 km
Cloud details: Mostly cloudy 1219 m
Overcast 1463 m
2019/12/06 16:53 KPBG 061653Z AUTO 00000KT 5SM -SN BKN040 OVC048 M02/M07 A2997 RMK AO2 SNB09 SLP151 P0000 T10221067
KMSS - Massena, New York, USA
Distance from station: SW 100km
Updated: 12/06/2019 12:01 EST
Light snow, Overcast
Light snow, Overcast
 Wind from calm
Wind: Calm
Temperature: -3°C
Dew Point: -6°C
Humidity: 80%
Barometer: 1014.9 hPa
Summary: Light Snow
Clouds: Overcast
Visibility: 3 km
Cloud details: Partly cloudy 244 m
Overcast 975 m
2019/12/06 17:01 KMSS 061701Z AUTO 00000KT 2SM -SN SCT008 OVC032 M03/M06 A2997 RMK AO2 P0000 T10331061
 
CWBS - Lac St Pierre (a, Quebec, Canada
Distance from station: NE 106km
Updated: 11/05/2019 18:00 EST
NOT Current

 Wind from SE
Wind: SE 9 km/h
Temperature: 6°C
Wind Chill: 4°C
Dew Point: 0°C
Humidity: 66%
2019/11/05 23:00 CWBS 052300Z AUTO 14005KT 06/M00 RMK AO1 T00551002
KBTV - Burlington, Vermont, USA
Distance from station: SSE 121km
Updated: 12/06/2019 11:54 EST
Overcast
Overcast
 Wind from S
Wind: S 15 km/h
Temperature: -2°C
Wind Chill: -7°C
Dew Point: -8°C
Humidity: 64%
Barometer: 1014.6 hPa
Clouds: Overcast
Visibility: 16 km
Cloud details: Mostly cloudy 1372 m
Overcast 1676 m
2019/12/06 16:54 KBTV 061654Z 19008KT 10SM BKN045 OVC055 M02/M08 A2996 RMK AO2 SLP149 T10171078
 
KSLK - Saranac Lake, New York, USA
Distance from station: SSW 121km
Updated: 12/06/2019 11:51 EST
Light snow, Mist, Overcast
Light snow, Mist, Overcast
 Wind from calm
Wind: Calm
Temperature: -5°C
Dew Point: -7°C
Humidity: 86%
Barometer: 1010.5 hPa
Summary: Light snow, Mist
Clouds: Overcast
Visibility: 2.4 km
Cloud details: Mostly cloudy 884 m
Overcast 1097 m
2019/12/06 16:51 KSLK 061651Z AUTO 00000KT 1 1/2SM -SN BR BKN029 OVC036 M05/M07 A2984 RMK AO2 SLP131 P0000 T10501072
CWNQ - Nicolet (autob), Quebec, Canada
Distance from station: NE 123km
Updated: 12/06/2019 11:00 EST

 Wind from WSW
Wind: WSW 13 km/h
Temperature: -5°C
Wind Chill: -10°C
Dew Point: -8°C
Humidity: 80%
2019/12/06 16:00 CWNQ 061600Z AUTO 24007KT M05/M08 RMK AO1 SLP149 T10521076 58002
 
KMWN - Mount Washington, New Hampshire, USA
Distance from station: SE 237km
Updated: 12/06/2019 11:55 EST
Light snow, Freezing, Fog, Overcast
Light snow, Freezing, Fog, Overcast
 Wind from WNW
Wind: WNW 59 km/h
Temperature: -14°C
Wind Chill: -28°C
Dew Point: -14°C
Humidity: 100%
Summary: Light snow, Freezing, Fog
Clouds: Overcast
Visibility: 0.1 km
Cloud details: Overcast 30 m
2019/12/06 16:55 KMWN 061655Z 29032KT 1/16SM -SN FZFG VV001 M14/M14 RMK VRY LGT ICG SUN DMLY VSBL
CYVR - Vancouver Intl A, British Columbia, Canada
Distance from station: NW 3676km
Updated: 12/06/2019 11:27 EST
Overcast
Overcast
 Wind from SSW
Wind: SSW 9 km/h
Temperature: 6°C
Wind Chill: 4°C
Dew Point: 5°C
Humidity: 93%
Barometer: 1013.5 hPa
Clouds: Overcast
Visibility: 19 km
Cloud details: Mostly cloudy 244 m
Mostly cloudy 1859 m
Overcast 3048 m
2019/12/06 16:27 CYVR 061627Z 21005KT 150V230 12SM BKN008 BKN061 OVC100 06/05 A2993 RMK SF6SC1AC1 SLP136